Time;durP1;ratioP1;P1;durP2;ratioP2;P2;SDS_P1;SDS_P2;PMS_P1;PMS_P2;Temp;Humidity;BMP_temperature;BMP_pressure;BME280_temperature;BME280_humidity;BME280_pressure;Samples;Min_cycle;Max_cycle;Signal;HPM_P1;HPM_P2
2021/04/24 09:37:59;;;;;;;5.72;2.63;;;15.50;66.10;;;;;;5164507;27;20586;-76
2021/04/24 09:40:47;;;;;;;;;;;;;;;;;;;;;
2021/04/24 09:46:10;;;;;;;9.68;3.45;;;16.50;65.80;;;;;;5074272;28;20224;-78
2021/04/24 09:48:42;;;;;;;10.48;3.30;;;16.60;62.50;;;;;;5112856;28;20200;-77
2021/04/24 09:51:13;;;;;;;8.50;2.92;;;16.00;64.00;;;;;;5118929;28;20252;-80
2021/04/24 09:53:41;;;;;;;8.35;4.03;;;15.70;64.90;;;;;;5120670;28;20258;-80
2021/04/24 09:56:14;;;;;;;8.43;4.00;;;15.90;65.30;;;;;;5111764;28;20210;-78
2021/04/24 09:58:43;;;;;;;9.27;2.70;;;15.80;64.80;;;;;;5116607;28;20189;-79
2021/04/24 10:01:21;;;;;;;7.38;3.00;;;15.40;64.60;;;;;;5128133;28;20367;-83
2021/04/24 10:04:03;;;;;;;11.18;3.90;;;15.00;65.60;;;;;;5123041;27;20228;-85
2021/04/24 10:06:34;;;;;;;10.85;3.05;;;14.70;66.60;;;;;;5132378;28;20669;-86
2021/04/24 10:09:23;;;;;;;8.07;3.17;;;14.50;66.90;;;;;;5129605;28;20265;-78
2021/04/24 10:12:10;;;;;;;8.95;2.83;;;14.70;67.80;;;;;;5120973;28;20215;-84
2021/04/24 10:14:39;;;;;;;6.88;2.50;;;15.10;65.90;;;;;;5111552;28;20580;-80
2021/04/24 10:17:08;;;;;;;7.82;2.97;;;15.60;65.40;;;;;;5120689;28;20284;-82
2021/04/24 10:19:36;;;;;;;6.45;2.60;;;15.60;65.50;;;;;;5115258;28;20201;-80
2021/04/24 10:22:04;;;;;;;8.18;3.40;;;15.30;64.70;;;;;;5120387;28;20233;-81
2021/04/24 10:24:33;;;;;;;7.00;2.75;;;15.20;65.20;;;;;;5092811;28;20288;-79
2021/04/24 10:27:00;;;;;;;7.65;2.67;;;15.10;64.90;;;;;;5118154;27;20225;-81
2021/04/24 10:29:36;;;;;;;6.22;2.30;;;14.90;64.70;;;;;;5118301;28;20242;-83
2021/04/24 10:32:03;;;;;;;11.20;3.10;;;14.80;64.90;;;;;;5114970;28;20265;-80
2021/04/24 10:34:31;;;;;;;8.45;2.95;;;14.80;64.40;;;;;;5123527;28;20237;-81
2021/04/24 10:36:59;;;;;;;4.50;2.47;;;14.60;64.80;;;;;;5113498;28;20213;-80
2021/04/24 10:39:31;;;;;;;5.30;2.33;;;14.70;63.90;;;;;;5119130;28;20294;-86
2021/04/24 10:42:06;;;;;;;7.88;3.05;;;15.00;63.20;;;;;;5119906;28;20206;-85
2021/04/24 10:44:50;;;;;;;5.85;2.58;;;15.40;62.20;;;;;;5117863;28;20682;-82
2021/04/24 10:47:45;;;;;;;7.60;2.95;;;15.90;62.30;;;;;;5115836;28;20603;-85
2021/04/24 10:50:17;;;;;;;9.00;3.25;;;16.50;60.30;;;;;;5106726;28;20294;-84
2021/04/24 10:52:59;;;;;;;5.15;2.10;;;16.90;58.40;;;;;;5107799;28;20255;-87
2021/04/24 10:55:30;;;;;;;4.25;1.98;;;17.00;57.50;;;;;;5098266;28;20225;-83
2021/04/24 10:58:00;;;;;;;3.97;2.40;;;17.20;57.40;;;;;;5096070;28;20290;-86
2021/04/24 11:03:57;;;;;;;5.05;2.33;;;17.20;56.10;;;;;;5092948;28;20320;-85
2021/04/24 11:06:36;;;;;;;8.20;2.53;;;16.70;55.90;;;;;;5093699;28;20275;-82
2021/04/24 11:09:18;;;;;;;5.07;2.00;;;16.70;56.20;;;;;;5103844;28;20207;-86
2021/04/24 11:11:59;;;;;;;3.10;1.60;;;16.70;55.60;;;;;;5087642;28;20552;-86
2021/04/24 11:14:29;;;;;;;4.82;1.98;;;16.70;55.50;;;;;;5094369;28;20226;-82
2021/04/24 11:17:01;;;;;;;3.63;1.85;;;16.90;55.30;;;;;;5102054;28;20198;-83
2021/04/24 11:19:41;;;;;;;4.78;1.85;;;16.70;55.50;;;;;;5105595;28;20254;-83
2021/04/24 11:22:34;;;;;;;4.85;1.73;;;17.20;54.70;;;;;;5097938;28;20211;-81
2021/04/24 11:25:29;;;;;;;4.30;1.45;;;17.20;54.10;;;;;;5114907;28;20225;-83
2021/04/24 11:28:07;;;;;;;7.28;1.95;;;16.70;55.50;;;;;;5099207;28;20224;-84
2021/04/24 11:30:55;;;;;;;6.28;2.58;;;16.30;56.30;;;;;;5100255;28;20561;-84
2021/04/24 11:33:33;;;;;;;4.03;2.05;;;16.50;56.90;;;;;;5096278;28;20229;-81
2021/04/24 11:36:20;;;;;;;6.45;2.08;;;16.60;56.10;;;;;;5089445;28;20578;-80
2021/04/24 11:39:10;;;;;;;7.38;3.22;;;16.90;56.40;;;;;;5098270;28;20235;-82
2021/04/24 11:41:38;;;;;;;3.97;1.95;;;16.80;55.20;;;;;;5081102;28;20239;-81
2021/04/24 11:44:42;;;;;;;5.90;2.40;;;16.40;55.60;;;;;;5109624;28;20218;-81
2021/04/24 11:47:10;;;;;;;3.70;1.73;;;15.90;56.40;;;;;;5107329;28;20304;-82
2021/04/24 11:49:52;;;;;;;4.30;2.10;;;15.40;57.00;;;;;;5087570;28;20300;-81
2021/04/24 11:52:18;;;;;;;5.25;1.65;;;15.10;58.40;;;;;;5092705;28;20194;-84
2021/04/24 11:54:50;;;;;;;5.07;1.70;;;15.30;58.40;;;;;;5096330;28;20330;-81
2021/04/24 11:57:22;;;;;;;3.90;2.08;;;15.30;58.00;;;;;;5098694;28;20189;-82
2021/04/24 11:59:50;;;;;;;2.60;1.65;;;15.10;58.50;;;;;;5085510;28;20206;-81
2021/04/24 12:02:21;;;;;;;4.97;1.98;;;15.30;58.40;;;;;;5100301;28;20193;-84
2021/04/24 12:04:49;;;;;;;7.43;2.17;;;15.50;58.10;;;;;;5092821;28;20238;-82
2021/04/24 12:07:17;;;;;;;4.43;2.10;;;15.50;57.80;;;;;;5095441;28;20226;-81
2021/04/24 12:09:53;;;;;;;4.78;2.50;;;15.40;57.50;;;;;;5086304;28;20202;-79
2021/04/24 12:12:21;;;;;;;6.05;2.08;;;15.30;57.70;;;;;;5103198;28;20643;-80
2021/04/24 12:14:49;;;;;;;4.57;2.45;;;15.40;58.20;;;;;;5095758;28;20578;-79
2021/04/24 12:17:18;;;;;;;2.85;1.50;;;15.40;58.10;;;;;;5097377;28;20609;-80
2021/04/24 12:19:45;;;;;;;5.95;2.42;;;15.30;57.70;;;;;;5097585;28;20679;-80
2021/04/24 12:22:18;;;;;;;4.05;1.83;;;15.00;58.10;;;;;;5094481;28;20206;-80
2021/04/24 12:25:02;;;;;;;5.97;3.05;;;14.90;58.60;;;;;;5097647;28;20221;-80
2021/04/24 12:27:37;;;;;;;4.47;1.70;;;15.00;58.50;;;;;;5090494;28;20585;-79
2021/04/24 12:30:10;;;;;;;4.68;1.88;;;15.20;58.50;;;;;;5086979;28;20230;-79
2021/04/24 12:32:40;;;;;;;7.65;2.20;;;15.30;58.20;;;;;;5091922;28;20225;-81
2021/04/24 12:35:10;;;;;;;3.90;2.30;;;15.20;58.00;;;;;;5099466;28;20226;-79
2021/04/24 12:37:38;;;;;;;5.82;2.78;;;15.20;58.10;;;;;;5088018;28;20298;-79
2021/04/24 12:40:10;;;;;;;6.43;2.00;;;15.30;58.70;;;;;;5098030;28;20202;-79
2021/04/24 12:42:37;;;;;;;6.03;2.45;;;15.50;58.10;;;;;;5096452;28;20404;-80
2021/04/24 12:45:16;;;;;;;4.13;2.45;;;15.30;57.80;;;;;;5100620;28;20249;-80
2021/04/24 12:47:45;;;;;;;14.38;9.85;;;15.20;58.80;;;;;;5090772;28;20237;-80
2021/04/24 12:50:18;;;;;;;5.45;1.92;;;15.20;61.40;;;;;;5095920;28;20202;-80
2021/04/24 12:52:47;;;;;;;8.18;2.47;;;15.20;58.80;;;;;;5099766;28;20217;-80
2021/04/24 12:55:15;;;;;;;7.03;3.17;;;15.20;59.10;;;;;;5089514;28;20230;-80
2021/04/24 12:57:53;;;;;;;8.50;3.70;;;15.10;58.70;;;;;;5099841;28;20210;-79
2021/04/24 13:00:22;;;;;;;4.85;2.03;;;14.80;59.60;;;;;;5092811;28;20575;-78
2021/04/24 13:02:49;;;;;;;5.75;2.08;;;14.80;58.40;;;;;;5092507;28;20209;-79
2021/04/24 13:05:18;;;;;;;6.05;2.45;;;14.60;58.30;;;;;;5093387;28;20193;-78
2021/04/24 13:07:45;;;;;;;3.90;2.97;;;14.60;58.40;;;;;;5093008;28;20317;-79
2021/04/24 13:10:19;;;;;;;5.80;2.78;;;14.60;60.70;;;;;;5091132;28;20202;-81
2021/04/24 13:12:58;;;;;;;7.65;2.15;;;14.70;58.80;;;;;;5100045;28;20208;-83
2021/04/24 13:15:24;;;;;;;9.35;2.15;;;14.70;60.20;;;;;;5089440;28;20206;-81
2021/04/24 13:17:54;;;;;;;7.10;2.03;;;14.70;58.40;;;;;;5088815;28;20381;-82
2021/04/24 13:20:31;;;;;;;2.80;1.63;;;14.60;58.80;;;;;;5091445;28;20202;-81
2021/04/24 13:22:58;;;;;;;7.78;2.42;;;14.60;59.60;;;;;;5096019;28;20284;-82
2021/04/24 13:25:33;;;;;;;7.03;2.40;;;14.70;59.80;;;;;;5103967;28;20194;-81
2021/04/24 13:28:00;;;;;;;3.15;1.75;;;14.50;59.00;;;;;;5094001;28;20295;-80
2021/04/24 13:30:27;;;;;;;3.80;1.73;;;14.30;58.90;;;;;;5095005;28;20201;-82
2021/04/24 13:32:57;;;;;;;4.20;2.13;;;14.10;59.30;;;;;;5100548;28;20632;-81
2021/04/24 13:35:40;;;;;;;3.30;2.08;;;14.00;59.60;;;;;;5096432;28;20279;-81
2021/04/24 13:38:07;;;;;;;6.13;3.20;;;14.20;61.50;;;;;;5100521;28;20201;-82
2021/04/24 13:40:40;;;;;;;4.55;1.67;;;14.40;61.40;;;;;;5091746;28;20193;-83
2021/04/24 13:43:07;;;;;;;3.58;1.85;;;14.40;59.10;;;;;;5091099;28;20255;-82
2021/04/24 13:45:34;;;;;;;3.67;2.53;;;14.30;59.20;;;;;;5092066;28;20204;-82
2021/04/24 13:48:07;;;;;;;3.38;1.30;;;14.30;61.30;;;;;;5084692;28;20672;-81
2021/04/24 13:50:38;;;;;;;6.82;1.80;;;14.30;59.70;;;;;;5092158;28;20307;-82
2021/04/24 13:53:09;;;;;;;2.83;1.65;;;14.40;59.90;;;;;;5099012;28;20194;-81
2021/04/24 13:55:36;;;;;;;5.25;2.85;;;14.30;59.20;;;;;;5092385;28;20240;-82
2021/04/24 13:58:05;;;;;;;5.00;1.73;;;14.20;60.00;;;;;;5091504;28;20198;-82
2021/04/24 14:00:32;;;;;;;4.13;2.15;;;14.20;60.10;;;;;;5094162;28;20204;-81
2021/04/24 14:02:59;;;;;;;4.28;2.25;;;14.20;60.60;;;;;;5089921;28;20289;-82
2021/04/24 14:05:29;;;;;;;5.80;1.67;;;14.40;60.70;;;;;;5092026;28;20210;-82
2021/04/24 14:07:56;;;;;;;7.80;2.60;;;14.40;60.80;;;;;;5086325;28;20221;-81
2021/04/24 14:10:24;;;;;;;7.32;2.53;;;14.40;59.90;;;;;;5102908;28;20223;-82
2021/04/24 14:12:53;;;;;;;6.22;2.13;;;14.30;62.50;;;;;;5096598;28;20202;-82
2021/04/24 14:15:22;;;;;;;3.53;2.20;;;14.30;60.30;;;;;;5093895;28;20225;-80
2021/04/24 14:17:49;;;;;;;3.80;2.05;;;14.40;61.20;;;;;;5084650;28;20205;-81
2021/04/24 14:20:17;;;;;;;3.20;2.30;;;14.20;59.20;;;;;;5084981;28;20629;-81
2021/04/24 14:22:46;;;;;;;6.53;2.17;;;13.80;59.40;;;;;;5098493;28;20232;-81
2021/04/24 14:25:14;;;;;;;3.47;1.60;;;13.70;60.30;;;;;;5098065;28;20229;-80
2021/04/24 14:27:42;;;;;;;3.90;2.15;;;13.80;61.70;;;;;;5098176;28;20218;-82
2021/04/24 14:30:11;;;;;;;3.05;1.90;;;13.80;60.10;;;;;;5106426;28;20207;-80
2021/04/24 14:32:38;;;;;;;4.20;2.15;;;13.80;60.30;;;;;;5096279;28;20678;-81
2021/04/24 14:35:07;;;;;;;3.10;2.00;;;13.80;63.00;;;;;;5108268;28;20314;-80
2021/04/24 14:37:34;;;;;;;4.53;1.85;;;13.90;60.40;;;;;;5091657;28;20291;-81
2021/04/24 14:40:02;;;;;;;7.15;2.42;;;14.10;60.40;;;;;;5096454;28;20664;-81
2021/04/24 14:42:28;;;;;;;4.60;2.03;;;14.10;59.50;;;;;;5085890;28;20210;-82
2021/04/24 14:44:55;;;;;;;7.97;2.53;;;14.10;60.20;;;;;;5097563;28;20249;-82
2021/04/24 14:47:22;;;;;;;5.78;2.08;;;14.00;61.30;;;;;;5093167;28;20225;-82
2021/04/24 14:49:49;;;;;;;6.10;1.90;;;14.00;60.70;;;;;;5104234;28;20206;-80
2021/04/24 14:52:15;;;;;;;4.15;1.63;;;13.80;62.10;;;;;;5096180;28;20354;-83
2021/04/24 14:54:42;;;;;;;2.58;2.35;;;13.80;61.10;;;;;;5090639;28;20266;-81
2021/04/24 14:57:10;;;;;;;3.33;1.45;;;13.80;62.50;;;;;;5098151;28;20200;-81
2021/04/24 14:59:36;;;;;;;6.03;1.80;;;14.00;61.60;;;;;;5094934;28;20240;-82
2021/04/24 15:02:03;;;;;;;6.47;1.85;;;14.00;58.90;;;;;;5096351;28;20243;-80
2021/04/24 15:04:31;;;;;;;4.03;2.45;;;14.00;59.20;;;;;;5097148;28;20288;-80
2021/04/24 15:06:58;;;;;;;10.75;3.72;;;13.90;58.90;;;;;;5092152;28;20236;-81
2021/04/24 15:09:24;;;;;;;3.90;1.50;;;13.70;60.20;;;;;;5090857;28;20732;-83
2021/04/24 15:11:51;;;;;;;3.85;1.50;;;13.60;61.00;;;;;;5095506;28;20637;-81
2021/04/24 15:14:19;;;;;;;3.75;1.90;;;13.60;61.80;;;;;;5090052;28;20740;-81
2021/04/24 15:16:46;;;;;;;5.00;1.77;;;13.70;62.60;;;;;;5089366;28;20207;-80
2021/04/24 15:19:13;;;;;;;3.30;1.45;;;13.80;61.80;;;;;;5094640;28;20204;-80
2021/04/24 15:21:40;;;;;;;4.35;1.67;;;13.70;61.50;;;;;;5091544;28;20212;-81
2021/04/24 15:24:10;;;;;;;5.20;2.00;;;13.60;61.70;;;;;;5093710;28;20574;-80
2021/04/24 15:26:36;;;;;;;3.30;1.65;;;13.70;62.90;;;;;;5094026;28;20229;-82
2021/04/24 15:29:04;;;;;;;2.85;1.45;;;13.60;61.10;;;;;;5090128;28;20205;-80
2021/04/24 15:31:32;;;;;;;5.25;1.95;;;13.60;61.50;;;;;;5099951;28;20213;-80
2021/04/24 15:33:59;;;;;;;5.55;2.33;;;13.60;61.60;;;;;;5093300;28;20228;-82
2021/04/24 15:36:28;;;;;;;3.78;1.33;;;13.60;61.60;;;;;;5095177;28;20417;-81
2021/04/24 15:38:55;;;;;;;3.17;1.30;;;13.70;61.50;;;;;;5100040;28;20220;-81
2021/04/24 15:41:22;;;;;;;2.42;1.50;;;13.70;61.20;;;;;;5098534;28;20282;-81
2021/04/24 15:43:48;;;;;;;4.65;2.03;;;13.50;61.60;;;;;;5110975;28;20233;-80
2021/04/24 15:46:16;;;;;;;3.45;1.63;;;13.40;61.20;;;;;;5094854;28;20212;-78
2021/04/24 15:48:44;;;;;;;1.98;1.45;;;13.30;63.20;;;;;;5099735;28;20215;-81
2021/04/24 15:51:10;;;;;;;6.95;2.50;;;13.10;62.20;;;;;;5097381;28;20283;-81
2021/04/24 15:53:38;;;;;;;5.45;2.40;;;13.00;63.60;;;;;;5105321;28;20214;-81
2021/04/24 15:56:05;;;;;;;5.20;1.80;;;13.00;63.70;;;;;;5096030;28;20211;-81
2021/04/24 15:58:32;;;;;;;4.18;1.50;;;12.80;65.50;;;;;;5094565;28;20696;-80
2021/04/24 16:00:58;;;;;;;6.43;2.17;;;12.90;67.50;;;;;;5091834;28;20200;-79
2021/04/24 16:03:25;;;;;;;5.32;2.22;;;12.90;66.50;;;;;;5095311;28;20707;-80
2021/04/24 16:05:53;;;;;;;3.50;1.60;;;12.90;67.30;;;;;;5100057;28;20287;-83
2021/04/24 16:08:20;;;;;;;4.35;1.80;;;12.90;67.30;;;;;;5094736;28;20256;-82
2021/04/24 16:10:47;;;;;;;3.40;1.75;;;12.90;67.90;;;;;;5101304;28;20257;-84
2021/04/24 16:13:14;;;;;;;2.17;1.55;;;13.00;67.30;;;;;;5094995;28;20223;-83
2021/04/24 16:15:41;;;;;;;2.22;1.60;;;12.90;67.20;;;;;;5088548;28;20249;-83
2021/04/24 16:18:07;;;;;;;3.15;1.92;;;12.90;67.40;;;;;;5096252;28;20213;-84
2021/04/24 16:20:34;;;;;;;4.40;1.90;;;12.70;67.60;;;;;;5091146;28;20287;-82
2021/04/24 16:23:02;;;;;;;5.95;1.90;;;12.60;68.80;;;;;;5092421;28;20199;-83
2021/04/24 16:25:29;;;;;;;3.05;1.40;;;12.60;70.00;;;;;;5099828;28;20683;-81
2021/04/24 16:27:57;;;;;;;8.95;2.10;;;12.60;70.50;;;;;;5093533;28;20993;-83
2021/04/24 16:30:25;;;;;;;3.20;1.90;;;12.60;69.80;;;;;;5087983;28;20206;-82
2021/04/24 16:32:52;;;;;;;8.18;1.92;;;12.50;70.30;;;;;;5087508;28;20212;-84
2021/04/24 16:35:19;;;;;;;5.45;1.88;;;12.50;70.70;;;;;;5105534;28;20542;-82
2021/04/24 16:37:46;;;;;;;3.42;1.67;;;12.60;71.20;;;;;;5094880;28;20213;-82
2021/04/24 16:40:15;;;;;;;6.82;2.80;;;12.50;71.50;;;;;;5095293;28;20856;-81
2021/04/24 16:42:41;;;;;;;7.50;2.03;;;12.60;71.50;;;;;;5107967;28;20197;-82
2021/04/24 16:45:14;;;;;;;5.82;2.03;;;12.50;71.90;;;;;;5099939;28;20225;-82
2021/04/24 16:47:41;;;;;;;7.53;2.60;;;12.50;72.50;;;;;;5097173;28;20214;-80
2021/04/24 16:50:09;;;;;;;5.10;2.72;;;12.30;71.60;;;;;;5092612;28;20254;-81
2021/04/24 16:52:36;;;;;;;7.05;2.38;;;12.20;72.60;;;;;;5089919;28;20636;-82
2021/04/24 16:55:05;;;;;;;9.32;2.00;;;12.30;74.40;;;;;;5102754;28;20223;-84
2021/04/24 16:57:33;;;;;;;5.65;2.00;;;12.20;73.20;;;;;;5095813;28;20198;-83
2021/04/24 16:59:59;;;;;;;4.88;1.80;;;12.20;74.70;;;;;;5090579;28;20285;-81
2021/04/24 17:02:26;;;;;;;6.60;1.70;;;12.20;73.10;;;;;;5093510;28;20229;-80
2021/04/24 17:04:53;;;;;;;7.22;2.15;;;12.00;72.50;;;;;;5085390;28;20288;-78
2021/04/24 17:07:19;;;;;;;5.22;1.95;;;11.80;72.80;;;;;;5096227;28;20218;-78
2021/04/24 17:09:47;;;;;;;6.03;2.80;;;11.60;74.20;;;;;;5089304;28;20577;-77
2021/04/24 17:12:14;;;;;;;7.38;2.83;;;11.50;75.00;;;;;;5097204;28;20206;-76
2021/04/24 17:14:42;;;;;;;8.60;2.20;;;11.40;74.70;;;;;;5092717;28;20692;-77
2021/04/24 17:17:08;;;;;;;7.25;1.75;;;11.30;75.50;;;;;;5092527;28;20220;-77
2021/04/24 17:19:35;;;;;;;6.32;1.92;;;11.30;76.90;;;;;;5091802;28;20229;-76
2021/04/24 17:22:04;;;;;;;5.97;2.35;;;11.40;77.60;;;;;;5098623;28;20198;-76
2021/04/24 17:24:31;;;;;;;3.50;1.65;;;11.40;77.00;;;;;;5091452;28;20225;-78
2021/04/24 17:26:58;;;;;;;9.93;2.83;;;11.40;77.00;;;;;;5088998;28;20222;-76
2021/04/24 17:29:28;;;;;;;13.30;2.67;;;11.40;78.10;;;;;;5091130;28;20586;-80
2021/04/24 17:31:55;;;;;;;8.20;3.30;;;11.50;77.50;;;;;;5093442;28;20283;-78
2021/04/24 17:34:22;;;;;;;5.13;2.15;;;11.40;77.30;;;;;;5087151;28;20223;-78
2021/04/24 17:36:50;;;;;;;9.07;2.85;;;11.20;76.90;;;;;;5097168;28;20287;-79
2021/04/24 17:39:16;;;;;;;6.90;1.95;;;11.10;79.10;;;;;;5091134;28;20227;-80
2021/04/24 17:41:43;;;;;;;5.25;2.10;;;11.10;79.40;;;;;;5099117;28;20217;-75
2021/04/24 17:44:11;;;;;;;6.95;2.63;;;11.20;79.80;;;;;;5092144;28;20380;-81
2021/04/24 17:46:37;;;;;;;9.25;2.25;;;11.10;79.90;;;;;;5097916;28;20217;-79
2021/04/24 17:49:07;;;;;;;11.82;3.13;;;11.10;78.80;;;;;;5085860;28;20219;-76
2021/04/24 17:51:37;;;;;;;3.67;1.95;;;10.90;77.80;;;;;;5101100;28;20293;-76
2021/04/24 17:54:07;;;;;;;13.90;2.45;;;10.60;78.00;;;;;;5086074;28;20695;-78
2021/04/24 17:56:33;;;;;;;8.05;3.05;;;10.50;78.60;;;;;;5089872;28;20206;-76
2021/04/24 17:59:00;;;;;;;4.07;2.45;;;10.30;79.00;;;;;;5093899;28;20656;-76
2021/04/24 18:01:27;;;;;;;7.45;2.80;;;10.20;79.80;;;;;;5095707;28;20305;-76
2021/04/24 18:03:56;;;;;;;8.05;2.45;;;10.10;81.20;;;;;;5092037;28;20716;-75
2021/04/24 18:06:24;;;;;;;7.55;2.85;;;10.00;83.00;;;;;;5089648;28;20649;-79
2021/04/24 18:08:52;;;;;;;5.57;2.45;;;9.90;85.10;;;;;;5088067;28;20202;-79
2021/04/24 18:11:19;;;;;;;7.05;3.15;;;9.80;86.20;;;;;;5096172;28;20209;-77
2021/04/24 18:13:46;;;;;;;6.00;3.63;;;9.70;87.00;;;;;;5100326;28;20733;-76
2021/04/24 18:16:13;;;;;;;7.32;3.70;;;9.60;88.50;;;;;;5102901;28;20220;-81
2021/04/24 18:18:40;;;;;;;4.85;3.10;;;9.60;90.20;;;;;;5098621;28;20205;-81
2021/04/24 18:21:08;;;;;;;7.95;3.38;;;9.50;91.00;;;;;;5089170;28;20210;-78
2021/04/24 18:23:35;;;;;;;8.02;4.13;;;9.40;91.60;;;;;;5085183;28;20298;-77
2021/04/24 18:26:02;;;;;;;11.18;5.00;;;9.30;92.40;;;;;;5093458;28;20213;-75
2021/04/24 18:28:29;;;;;;;6.47;4.50;;;9.20;93.30;;;;;;5100435;28;20221;-77
2021/04/24 18:30:56;;;;;;;11.18;4.75;;;9.10;94.60;;;;;;5098925;28;20210;-77
2021/04/24 18:33:23;;;;;;;17.70;4.88;;;9.00;95.40;;;;;;5100782;28;20230;-77
2021/04/24 18:35:49;;;;;;;11.65;4.78;;;9.00;96.10;;;;;;5095810;28;20232;-79
2021/04/24 18:38:16;;;;;;;9.98;4.90;;;9.00;96.80;;;;;;5098283;28;20206;-76
2021/04/24 18:40:44;;;;;;;17.90;4.88;;;8.90;97.40;;;;;;5093633;28;20258;-75
2021/04/24 18:43:13;;;;;;;11.88;7.38;;;8.80;97.70;;;;;;5099493;28;20197;-80
2021/04/24 18:45:41;;;;;;;10.98;4.30;;;8.80;98.30;;;;;;5098252;28;20200;-76
2021/04/24 18:48:08;;;;;;;14.50;7.05;;;8.70;98.50;;;;;;5098746;28;20356;-77
2021/04/24 18:50:35;;;;;;;20.40;11.10;;;8.70;98.80;;;;;;5103587;28;20246;-77
2021/04/24 18:53:02;;;;;;;13.30;6.68;;;8.60;99.00;;;;;;5092444;28;20204;-74
2021/04/24 18:55:29;;;;;;;13.52;7.20;;;8.50;99.20;;;;;;5099434;28;20323;-74
2021/04/24 18:57:57;;;;;;;11.90;5.50;;;8.50;99.60;;;;;;5095616;28;20205;-78
2021/04/24 19:00:26;;;;;;;7.68;4.53;;;8.40;99.90;;;;;;5086081;28;20191;-76
2021/04/24 19:02:53;;;;;;;8.18;5.03;;;8.40;99.90;;;;;;5092209;28;20601;-76
2021/04/24 19:05:21;;;;;;;9.23;5.18;;;8.30;99.90;;;;;;5098296;28;20201;-75
2021/04/24 19:07:48;;;;;;;10.15;4.63;;;8.30;99.90;;;;;;5089919;28;20216;-76
2021/04/24 19:10:35;;;;;;;10.88;5.45;;;8.30;99.90;;;;;;5091925;28;20226;-77
2021/04/24 19:13:11;;;;;;;10.05;5.28;;;8.20;99.90;;;;;;5100114;28;20201;-77
2021/04/24 19:15:38;;;;;;;11.55;5.25;;;8.20;99.90;;;;;;5089983;28;20197;-77
2021/04/24 19:18:06;;;;;;;8.63;5.20;;;8.20;99.90;;;;;;5094849;28;20226;-76
2021/04/24 19:20:33;;;;;;;16.55;5.78;;;8.10;99.90;;;;;;5094814;28;20198;-79
2021/04/24 19:23:00;;;;;;;11.80;5.10;;;8.00;99.90;;;;;;5093480;28;20637;-76
2021/04/24 19:25:27;;;;;;;10.63;6.03;;;8.00;99.90;;;;;;5092089;28;20207;-76
2021/04/24 19:27:54;;;;;;;8.85;4.45;;;8.00;99.90;;;;;;5098327;28;20227;-79
2021/04/24 19:30:23;;;;;;;9.35;5.07;;;7.90;99.90;;;;;;5085603;28;20243;-78
2021/04/24 19:32:51;;;;;;;8.27;4.45;;;7.90;99.90;;;;;;5089810;28;20207;-83
2021/04/24 19:35:19;;;;;;;9.75;4.65;;;7.90;99.90;;;;;;5093079;28;20203;-77
2021/04/24 19:37:49;;;;;;;13.98;6.82;;;7.80;99.90;;;;;;5095558;28;20212;-79
2021/04/24 19:40:17;;;;;;;8.40;5.07;;;7.70;99.90;;;;;;5093417;28;20241;-78
2021/04/24 19:42:45;;;;;;;8.77;5.15;;;7.70;99.90;;;;;;5099558;28;20214;-76
2021/04/24 19:45:14;;;;;;;10.07;5.95;;;7.70;99.90;;;;;;5097779;28;20235;-80
2021/04/24 19:47:42;;;;;;;11.20;6.00;;;7.60;99.90;;;;;;5097313;28;20222;-78
2021/04/24 19:50:11;;;;;;;11.05;5.28;;;7.60;99.90;;;;;;5100338;28;20642;-78
2021/04/24 19:52:38;;;;;;;12.27;5.40;;;7.60;99.90;;;;;;5094089;28;20198;-78
2021/04/24 19:55:06;;;;;;;9.20;5.60;;;7.50;99.90;;;;;;5101386;28;20233;-82
2021/04/24 19:57:33;;;;;;;8.45;5.38;;;7.50;99.90;;;;;;5094688;28;20199;-77
2021/04/24 20:00:00;;;;;;;8.35;5.18;;;7.50;99.90;;;;;;5090163;28;20203;-77
2021/04/24 20:02:28;;;;;;;6.47;4.80;;;7.50;99.90;;;;;;5096495;28;20209;-80
2021/04/24 20:04:56;;;;;;;10.68;5.93;;;7.40;99.90;;;;;;5099860;28;20306;-77
2021/04/24 20:07:22;;;;;;;14.40;6.40;;;7.40;99.90;;;;;;5094524;28;20489;-73
2021/04/24 20:09:49;;;;;;;10.63;5.22;;;7.40;99.90;;;;;;5095341;28;20210;-73
2021/04/24 20:12:16;;;;;;;13.02;4.57;;;7.30;99.90;;;;;;5093195;28;20211;-75
2021/04/24 20:14:42;;;;;;;10.98;4.95;;;7.30;99.90;;;;;;5090452;28;20256;-74
2021/04/24 20:17:11;;;;;;;7.70;5.20;;;7.30;99.90;;;;;;5098951;28;20668;-76
2021/04/24 20:19:38;;;;;;;9.27;4.50;;;7.20;99.90;;;;;;5091312;28;20210;-77
2021/04/24 20:22:06;;;;;;;5.90;4.43;;;7.20;99.90;;;;;;5094001;28;20560;-74
2021/04/24 20:24:32;;;;;;;10.77;5.63;;;7.20;99.90;;;;;;5097471;28;20226;-77
2021/04/24 20:27:01;;;;;;;10.07;5.03;;;7.20;99.90;;;;;;5098626;28;20506;-78
2021/04/24 20:29:28;;;;;;;13.90;5.43;;;7.20;99.90;;;;;;5092065;28;20217;-76
2021/04/24 20:31:54;;;;;;;8.63;4.55;;;7.20;99.90;;;;;;5086408;28;20210;-77
2021/04/24 20:34:21;;;;;;;8.30;4.30;;;7.20;99.90;;;;;;5092984;28;20215;-77
2021/04/24 20:36:48;;;;;;;9.02;4.55;;;7.20;99.90;;;;;;5093960;28;20211;-75
2021/04/24 20:39:24;;;;;;;9.77;4.78;;;7.10;99.90;;;;;;5090412;28;20222;-75
2021/04/24 20:41:52;;;;;;;8.13;4.50;;;7.10;99.90;;;;;;5092905;28;20254;-75
2021/04/24 20:44:19;;;;;;;7.45;4.10;;;7.10;99.90;;;;;;5092028;28;20218;-76
2021/04/24 20:46:46;;;;;;;15.70;5.75;;;7.00;99.90;;;;;;5092469;28;20203;-76
2021/04/24 20:49:16;;;;;;;10.30;4.15;;;7.00;99.90;;;;;;5092084;28;20214;-75
2021/04/24 20:51:44;;;;;;;7.75;4.80;;;7.00;99.90;;;;;;5092517;28;20198;-76
2021/04/24 20:54:10;;;;;;;11.77;4.93;;;7.00;99.90;;;;;;5090545;28;20215;-79
2021/04/24 20:56:38;;;;;;;10.77;4.63;;;7.00;99.90;;;;;;5091916;28;20248;-76
2021/04/24 20:59:05;;;;;;;8.38;4.53;;;6.90;99.90;;;;;;5092398;28;20202;-76
2021/04/24 21:01:31;;;;;;;11.55;4.15;;;6.90;99.90;;;;;;5097255;28;20206;-80
2021/04/24 21:03:58;;;;;;;7.85;5.40;;;6.80;99.90;;;;;;5091793;28;20222;-76
2021/04/24 21:06:24;;;;;;;9.93;5.25;;;6.80;99.90;;;;;;5094050;28;20906;-76
2021/04/24 21:08:52;;;;;;;10.63;5.70;;;6.80;99.90;;;;;;5090284;28;20229;-75
2021/04/24 21:11:19;;;;;;;10.13;5.25;;;6.80;99.90;;;;;;5088447;28;20203;-74
2021/04/24 21:13:46;;;;;;;7.45;4.43;;;6.70;99.90;;;;;;5081984;28;20269;-78
2021/04/24 21:16:13;;;;;;;10.10;5.78;;;6.70;99.90;;;;;;5093880;28;20205;-76
2021/04/24 21:18:41;;;;;;;9.27;4.72;;;6.70;99.90;;;;;;5094868;28;20194;-74
2021/04/24 21:21:08;;;;;;;10.02;5.07;;;6.70;99.90;;;;;;5093297;28;20217;-78
2021/04/24 21:23:35;;;;;;;11.63;4.53;;;6.70;99.90;;;;;;5091744;28;20233;-77
2021/04/24 21:26:01;;;;;;;9.05;5.43;;;6.70;99.90;;;;;;5088807;28;20521;-79
2021/04/24 21:28:28;;;;;;;13.35;6.13;;;6.70;99.90;;;;;;5091315;28;20279;-78
2021/04/24 21:30:55;;;;;;;10.48;5.05;;;6.60;99.90;;;;;;5092056;28;20221;-76
2021/04/24 21:33:23;;;;;;;6.38;4.25;;;6.70;99.90;;;;;;5090609;28;20259;-76
2021/04/24 21:35:50;;;;;;;8.50;5.47;;;6.60;99.90;;;;;;5088497;28;20258;-77
2021/04/24 21:38:16;;;;;;;10.93;6.15;;;6.60;99.90;;;;;;5091397;28;20656;-77
2021/04/24 21:40:44;;;;;;;9.52;4.70;;;6.60;99.90;;;;;;5092576;28;20202;-76
2021/04/24 21:43:11;;;;;;;10.93;5.97;;;6.60;99.90;;;;;;5092688;28;20238;-73
2021/04/24 21:45:38;;;;;;;6.65;4.32;;;6.60;99.90;;;;;;5103489;28;20209;-75
2021/04/24 21:48:06;;;;;;;11.20;4.60;;;6.60;99.90;;;;;;5097496;28;20222;-82
2021/04/24 21:50:32;;;;;;;13.35;5.63;;;6.60;99.90;;;;;;5108150;28;20201;-76
2021/04/24 21:52:59;;;;;;;10.23;5.13;;;6.50;99.90;;;;;;5091249;28;20247;-77
2021/04/24 21:55:25;;;;;;;11.43;5.10;;;6.50;99.90;;;;;;5091373;28;20204;-74
2021/04/24 21:57:52;;;;;;;10.07;5.43;;;6.50;99.90;;;;;;5102329;28;20212;-75
2021/04/24 22:00:55;;;;;;;9.85;4.25;;;6.50;99.90;;;;;;5094722;28;20202;-75
2021/04/24 22:03:29;;;;;;;8.70;4.95;;;6.50;99.90;;;;;;5087924;28;20220;-77
2021/04/24 22:05:56;;;;;;;8.93;4.85;;;6.60;99.90;;;;;;5092025;28;20198;-76
2021/04/24 22:08:23;;;;;;;11.75;5.75;;;6.60;99.90;;;;;;5093183;28;20221;-78
2021/04/24 22:10:49;;;;;;;9.82;4.40;;;6.60;99.90;;;;;;5097160;28;20303;-78
2021/04/24 22:13:16;;;;;;;11.68;5.60;;;6.60;99.90;;;;;;5095748;28;20228;-77
2021/04/24 22:15:43;;;;;;;8.98;4.13;;;6.60;99.90;;;;;;5099511;28;20492;-76
2021/04/24 22:18:10;;;;;;;14.48;6.25;;;6.60;99.90;;;;;;5092295;28;20637;-76
2021/04/24 22:20:38;;;;;;;8.80;4.43;;;6.50;99.90;;;;;;5085036;28;20199;-77
2021/04/24 22:23:05;;;;;;;10.30;4.55;;;6.50;99.90;;;;;;5095740;28;20205;-74
2021/04/24 22:25:32;;;;;;;8.40;4.72;;;6.50;99.90;;;;;;5092959;28;20539;-76
2021/04/24 22:27:58;;;;;;;8.77;5.60;;;6.50;99.90;;;;;;5092680;28;20222;-76
2021/04/24 22:30:26;;;;;;;17.70;4.82;;;6.50;99.90;;;;;;5093294;28;20587;-76
2021/04/24 22:32:53;;;;;;;12.25;4.63;;;6.50;99.90;;;;;;5092850;28;20195;-76
2021/04/24 22:35:20;;;;;;;10.68;4.80;;;6.50;99.90;;;;;;5093522;28;20218;-77
2021/04/24 22:37:48;;;;;;;7.20;4.72;;;6.50;99.90;;;;;;5084125;28;20211;-75
2021/04/24 22:40:16;;;;;;;10.57;5.00;;;6.50;99.90;;;;;;5090948;28;20206;-77
2021/04/24 22:42:43;;;;;;;10.65;5.25;;;6.50;99.90;;;;;;5093128;28;20198;-77
2021/04/24 22:45:17;;;;;;;8.30;4.60;;;6.50;99.90;;;;;;5094306;28;20230;-75